createdAt,value
2023-09-23T00:01:35.801Z,3.50
2023-09-23T00:04:04.894Z,0.90
2023-09-23T00:06:32.669Z,2.10
2023-09-23T00:09:01.557Z,1.10
2023-09-23T00:11:30.033Z,1.70
2023-09-23T00:13:57.938Z,0.90
2023-09-23T00:16:25.826Z,2.30
2023-09-23T00:18:53.370Z,3.80
2023-09-23T00:21:21.030Z,4.00
2023-09-23T00:23:48.751Z,0.80
2023-09-23T00:26:19.072Z,2.80
2023-09-23T00:28:49.383Z,2.90
2023-09-23T00:31:17.921Z,0.60
2023-09-23T00:33:50.247Z,3.60
2023-09-23T00:36:17.911Z,2.30
2023-09-23T00:38:45.748Z,2.10
2023-09-23T00:41:14.361Z,2.40
2023-09-23T00:43:42.141Z,2.90
2023-09-23T00:46:09.912Z,1.80
2023-09-23T00:48:40.038Z,1.90
2023-09-23T00:51:10.884Z,1.50
2023-09-23T00:53:41.537Z,0.70
2023-09-23T00:56:10.044Z,1.20
2023-09-23T00:58:39.382Z,1.90
2023-09-23T01:01:07.271Z,1.50
2023-09-23T01:03:35.072Z,1.40
2023-09-23T01:06:06.843Z,2.30
2023-09-23T01:08:35.128Z,2.30
2023-09-23T01:11:03.178Z,2.30
2023-09-23T01:13:31.902Z,1.80
2023-09-23T01:16:01.204Z,1.80
2023-09-23T01:18:30.284Z,1.80
2023-09-23T01:20:58.547Z,1.60
2023-09-23T01:23:26.509Z,2.00
2023-09-23T01:25:54.199Z,2.30
2023-09-23T01:28:21.931Z,1.60
2023-09-23T01:30:49.917Z,2.40
2023-09-23T01:33:17.686Z,1.70
2023-09-23T01:35:47.304Z,1.10
2023-09-23T01:38:17.028Z,0.70
2023-09-23T01:40:45.185Z,2.10
2023-09-23T01:43:13.240Z,2.20
2023-09-23T01:45:41.962Z,1.70
2023-09-23T01:48:09.599Z,0.90
2023-09-23T01:50:37.264Z,2.20
2023-09-23T01:53:05.869Z,1.80
2023-09-23T01:55:33.591Z,1.10
2023-09-23T01:58:02.615Z,2.40
2023-09-23T02:04:50.058Z,2.50
2023-09-23T02:07:18.504Z,3.10
2023-09-23T02:09:47.092Z,0.70
2023-09-23T02:12:15.977Z,3.00
2023-09-23T02:14:43.532Z,2.30
2023-09-23T02:17:11.255Z,1.80
2023-09-23T02:19:38.875Z,1.10
2023-09-23T02:22:11.642Z,1.30
2023-09-23T02:24:39.401Z,0.90
2023-09-23T02:27:07.573Z,2.90
2023-09-23T02:29:36.055Z,0.80
2023-09-23T02:32:03.983Z,1.40
2023-09-23T02:34:31.686Z,1.50
2023-09-23T02:36:59.290Z,1.10
2023-09-23T02:39:26.839Z,1.20
2023-09-23T02:41:54.369Z,3.60
2023-09-23T02:44:24.296Z,3.20
2023-09-23T02:46:54.421Z,2.00
2023-09-23T02:49:22.364Z,1.60
2023-09-23T02:51:50.523Z,3.70
2023-09-23T02:54:18.936Z,1.40
2023-09-23T02:56:49.750Z,2.10
2023-09-23T02:59:23.014Z,1.50
2023-09-23T03:01:53.249Z,2.70
2023-09-23T03:04:25.169Z,2.50
2023-09-23T03:07:01.185Z,2.10
2023-09-23T03:09:33.825Z,1.40
2023-09-23T03:12:02.357Z,3.00
2023-09-23T03:14:44.046Z,3.40
2023-09-23T03:17:14.248Z,3.20
2023-09-23T03:19:42.024Z,2.90
2023-09-23T03:22:09.668Z,2.80
2023-09-23T03:24:37.255Z,4.10
2023-09-23T03:27:04.883Z,3.20
2023-09-23T03:29:34.079Z,2.10
2023-09-23T03:34:44.062Z,0.90
2023-09-23T03:37:21.163Z,1.40
2023-09-23T03:39:48.610Z,2.80
2023-09-23T03:42:18.182Z,9.30
2023-09-23T03:44:45.843Z,4.70
2023-09-23T03:47:14.057Z,3.90
2023-09-23T03:49:41.788Z,2.00
2023-09-23T03:52:09.440Z,2.00
2023-09-23T03:54:37.517Z,2.50
2023-09-23T03:57:06.080Z,2.10
2023-09-23T03:59:34.175Z,2.10
2023-09-23T04:02:01.988Z,3.60
2023-09-23T04:04:29.692Z,2.80
2023-09-23T04:06:58.482Z,2.90
2023-09-23T04:09:26.037Z,1.90
2023-09-23T04:11:53.840Z,0.60
2023-09-23T04:14:22.088Z,2.40
2023-09-23T04:16:49.752Z,1.00
2023-09-23T04:19:17.396Z,5.20
2023-09-23T04:21:45.060Z,2.50
2023-09-23T04:24:12.629Z,2.00
2023-09-23T04:26:40.394Z,1.60
2023-09-23T04:29:08.957Z,2.00
2023-09-23T04:31:36.625Z,3.10
2023-09-23T04:34:04.306Z,4.10
2023-09-23T04:36:32.162Z,1.50
2023-09-23T04:38:59.712Z,6.60
2023-09-23T04:41:27.378Z,2.50
2023-09-23T04:43:55.059Z,2.50
2023-09-23T04:46:22.748Z,1.30
2023-09-23T04:48:50.660Z,2.90
2023-09-23T04:51:18.857Z,2.30
2023-09-23T04:53:46.517Z,2.40
2023-09-23T04:56:18.615Z,2.80
2023-09-23T04:58:47.210Z,4.40
2023-09-23T05:01:17.267Z,3.50
2023-09-23T05:03:45.146Z,2.80
2023-09-23T05:06:13.413Z,2.80
2023-09-23T05:08:41.061Z,3.20
2023-09-23T05:11:08.676Z,2.10
2023-09-23T05:13:38.599Z,5.40
2023-09-23T05:16:06.423Z,2.90
2023-09-23T05:18:34.335Z,2.30
2023-09-23T05:21:02.038Z,1.60
2023-09-23T05:23:30.411Z,0.70
2023-09-23T05:25:59.528Z,2.40
2023-09-23T05:28:28.287Z,1.50
2023-09-23T05:30:56.015Z,2.70
2023-09-23T05:33:23.697Z,1.70
2023-09-23T05:35:53.418Z,5.10
2023-09-23T05:38:21.034Z,3.30
2023-09-23T05:40:48.886Z,1.90
2023-09-23T05:43:16.608Z,3.60
2023-09-23T05:45:44.282Z,1.40
2023-09-23T05:48:11.989Z,2.70
2023-09-23T05:50:39.898Z,1.80
2023-09-23T05:53:07.818Z,2.70
2023-09-23T05:55:35.438Z,2.70
2023-09-23T05:58:03.049Z,2.30
2023-09-23T06:00:33.756Z,2.00
2023-09-23T06:03:01.853Z,2.00
2023-09-23T06:05:29.633Z,2.50
2023-09-23T06:07:57.598Z,3.00
2023-09-23T06:10:25.501Z,1.80
2023-09-23T06:12:53.219Z,3.30
2023-09-23T06:15:21.020Z,3.00
2023-09-23T06:17:48.791Z,3.00
2023-09-23T06:20:16.630Z,2.20
2023-09-23T06:22:44.259Z,1.90
2023-09-23T06:25:12.146Z,1.00
2023-09-23T06:27:39.692Z,1.60
2023-09-23T06:30:07.834Z,2.60
2023-09-23T06:32:35.746Z,2.10
2023-09-23T06:35:03.814Z,2.30
2023-09-23T06:37:31.701Z,1.50
2023-09-23T06:39:59.373Z,1.80
2023-09-23T06:42:27.027Z,2.40
2023-09-23T06:44:54.786Z,2.90
2023-09-23T06:47:22.628Z,2.60
2023-09-23T06:49:50.302Z,3.60
2023-09-23T06:52:17.818Z,2.20
2023-09-23T06:54:45.833Z,1.30
2023-09-23T06:57:14.733Z,2.80
2023-09-23T06:59:42.402Z,2.70
2023-09-23T07:02:10.141Z,2.90
2023-09-23T07:04:38.158Z,3.40
2023-09-23T07:07:05.621Z,2.90
2023-09-23T07:09:33.190Z,1.90
2023-09-23T07:12:00.743Z,4.50
2023-09-23T07:14:28.353Z,1.10
2023-09-23T07:16:57.110Z,2.30
2023-09-23T07:19:25.250Z,3.00
2023-09-23T07:21:53.038Z,3.40
2023-09-23T07:24:20.705Z,3.50
2023-09-23T07:26:48.360Z,7.30
2023-09-23T07:29:16.073Z,2.60
2023-09-23T07:31:43.994Z,1.20
2023-09-23T07:34:13.320Z,3.10
2023-09-23T07:36:41.569Z,2.10
2023-09-23T07:39:09.326Z,5.10
2023-09-23T07:41:37.117Z,2.40
2023-09-23T07:44:05.353Z,3.70
2023-09-23T07:46:33.847Z,4.50
2023-09-23T07:49:03.649Z,2.40
2023-09-23T07:51:32.861Z,1.90
2023-09-23T07:54:00.517Z,2.50
2023-09-23T07:56:28.627Z,2.50
2023-09-23T07:58:56.601Z,3.10
2023-09-23T08:01:24.230Z,4.30
2023-09-23T08:03:53.376Z,5.00
2023-09-23T08:06:22.240Z,2.00
2023-09-23T08:08:50.085Z,3.80
2023-09-23T08:11:18.115Z,3.30
2023-09-23T08:13:46.159Z,4.50
2023-09-23T08:16:14.091Z,2.80
2023-09-23T08:18:42.394Z,4.90
2023-09-23T08:21:10.212Z,2.70
2023-09-23T08:23:37.908Z,2.00
2023-09-23T08:26:05.755Z,2.20
2023-09-23T08:28:33.705Z,2.90
2023-09-23T08:31:01.469Z,3.00
2023-09-23T08:33:29.623Z,3.60
2023-09-23T08:35:57.305Z,2.90
2023-09-23T08:38:24.871Z,1.70
2023-09-23T08:40:52.803Z,2.80
2023-09-23T08:43:24.546Z,3.30
2023-09-23T08:45:52.261Z,1.60
2023-09-23T08:48:19.882Z,2.20
2023-09-23T08:50:48.203Z,3.30
2023-09-23T08:53:16.423Z,1.80
2023-09-23T08:55:44.871Z,1.70
2023-09-23T08:58:12.624Z,1.70
2023-09-23T09:00:47.028Z,2.30
2023-09-23T09:03:15.490Z,2.90
2023-09-23T09:05:45.221Z,5.00
2023-09-23T09:08:14.258Z,3.10
2023-09-23T09:10:42.825Z,7.30
2023-09-23T09:13:19.023Z,7.90
2023-09-23T09:15:46.873Z,4.30
2023-09-23T09:18:14.766Z,2.30
2023-09-23T09:20:43.677Z,2.80
2023-09-23T09:23:16.712Z,3.50
2023-09-23T09:25:48.529Z,3.30
2023-09-23T09:28:19.463Z,2.90
2023-09-23T09:30:49.308Z,4.00
2023-09-23T09:33:17.621Z,2.70
2023-09-23T09:35:45.751Z,2.00
2023-09-23T09:38:44.286Z,4.70
2023-09-23T09:41:15.794Z,3.00
2023-09-23T09:43:46.948Z,5.60
2023-09-23T09:46:14.993Z,5.70
2023-09-23T09:48:43.008Z,1.90
2023-09-23T09:51:17.202Z,2.90
2023-09-23T09:53:46.309Z,2.20
2023-09-23T09:56:14.169Z,3.40
2023-09-23T09:58:42.699Z,2.20
2023-09-23T10:01:13.349Z,1.70
2023-09-23T10:03:44.764Z,3.50
2023-09-23T10:06:20.147Z,2.50
2023-09-23T10:08:50.915Z,3.90
2023-09-23T10:11:18.517Z,4.30
2023-09-23T10:13:47.331Z,3.20
2023-09-23T10:16:19.050Z,2.90
2023-09-23T10:18:56.881Z,2.20
2023-09-23T10:21:25.990Z,3.20
2023-09-23T10:23:57.020Z,4.80
2023-09-23T10:26:25.107Z,3.00
2023-09-23T10:29:12.136Z,3.20
2023-09-23T10:31:39.813Z,2.10
2023-09-23T10:34:08.272Z,3.00
2023-09-23T10:36:37.940Z,5.60
2023-09-23T10:39:08.701Z,1.80
2023-09-23T10:41:37.007Z,3.00
2023-09-23T10:44:04.890Z,3.50
2023-09-23T10:46:33.063Z,3.20
2023-09-23T10:49:04.982Z,2.20
2023-09-23T10:51:34.619Z,1.90
2023-09-23T10:54:02.757Z,2.10
2023-09-23T10:56:30.757Z,3.90
2023-09-23T10:58:58.584Z,2.70
2023-09-23T11:01:26.486Z,2.30
2023-09-23T11:03:56.187Z,3.30
2023-09-23T11:06:24.074Z,2.30
2023-09-23T11:08:51.701Z,2.30
2023-09-23T11:11:19.916Z,4.20
2023-09-23T11:13:48.444Z,4.00
2023-09-23T11:16:16.271Z,2.90
2023-09-23T11:18:45.783Z,2.70
2023-09-23T11:21:13.893Z,3.90
2023-09-23T11:23:41.535Z,3.30
2023-09-23T11:26:09.184Z,2.20
2023-09-23T11:28:36.745Z,3.40
2023-09-23T11:31:04.297Z,10.70
2023-09-23T11:33:31.885Z,2.00
2023-09-23T11:35:59.412Z,3.60
2023-09-23T11:38:27.105Z,4.50
2023-09-23T11:40:56.054Z,2.70
2023-09-23T11:43:23.762Z,2.00
2023-09-23T11:45:51.514Z,2.00
2023-09-23T11:48:19.443Z,3.80
2023-09-23T11:50:47.565Z,2.40
2023-09-23T11:53:15.258Z,2.90
2023-09-23T11:55:43.500Z,3.20
2023-09-23T11:58:11.069Z,2.10
2023-09-23T12:00:38.757Z,3.90
2023-09-23T12:03:06.490Z,2.20
2023-09-23T12:05:34.354Z,3.50
2023-09-23T12:08:02.464Z,3.20
2023-09-23T12:10:31.309Z,1.50
2023-09-23T12:13:05.363Z,4.70
2023-09-23T12:15:33.633Z,2.20
2023-09-23T12:18:01.384Z,2.60
2023-09-23T12:20:29.933Z,5.50
2023-09-23T12:23:00.218Z,1.70
2023-09-23T12:25:27.826Z,3.50
2023-09-23T12:27:59.000Z,2.50
2023-09-23T12:30:27.164Z,2.50
2023-09-23T12:32:55.013Z,4.30
2023-09-23T12:35:22.808Z,4.20
2023-09-23T12:37:50.601Z,2.00
2023-09-23T12:40:18.318Z,1.40
2023-09-23T12:42:46.083Z,2.20
2023-09-23T12:45:14.600Z,3.00
2023-09-23T12:47:56.767Z,2.90
2023-09-23T12:50:26.610Z,3.40
2023-09-23T12:52:54.963Z,3.60
2023-09-23T12:55:22.657Z,3.20
2023-09-23T12:57:54.668Z,1.90
2023-09-23T13:00:23.398Z,2.90
2023-09-23T13:02:52.027Z,1.90
2023-09-23T13:05:20.125Z,2.60
2023-09-23T13:07:47.791Z,3.30
2023-09-23T13:10:15.599Z,1.70
2023-09-23T13:12:43.317Z,1.80
2023-09-23T13:15:10.973Z,2.70
2023-09-23T13:17:38.762Z,1.60
2023-09-23T13:20:07.326Z,1.50
2023-09-23T13:22:35.905Z,2.30
2023-09-23T13:25:04.292Z,1.90
2023-09-23T13:27:33.182Z,2.00
2023-09-23T13:30:00.894Z,1.80
2023-09-23T13:32:28.603Z,2.50
2023-09-23T13:34:56.311Z,1.60
2023-09-23T13:37:23.925Z,4.50
2023-09-23T13:39:53.652Z,2.90
2023-09-23T13:42:23.038Z,3.70
2023-09-23T13:44:51.523Z,2.20
2023-09-23T13:47:19.401Z,2.10
2023-09-23T13:49:47.141Z,2.30
2023-09-23T13:52:15.231Z,2.60
2023-09-23T13:54:42.881Z,2.40
2023-09-23T13:57:10.369Z,3.20
2023-09-23T13:59:38.046Z,2.40
2023-09-23T14:02:06.420Z,1.30
2023-09-23T14:04:34.434Z,2.90
2023-09-23T14:07:02.151Z,1.90
2023-09-23T14:09:30.577Z,2.30
2023-09-23T14:11:59.498Z,2.20
2023-09-23T14:14:27.107Z,2.70
2023-09-23T14:16:54.749Z,3.60
2023-09-23T14:19:22.875Z,1.40
2023-09-23T14:21:50.365Z,1.90
2023-09-23T14:24:18.005Z,1.80
2023-09-23T14:26:46.626Z,2.40
2023-09-23T14:29:14.889Z,5.20
2023-09-23T14:31:42.614Z,1.60
2023-09-23T14:34:10.873Z,2.20
2023-09-23T14:36:39.055Z,4.00
2023-09-23T14:39:06.713Z,2.00
2023-09-23T14:41:35.268Z,1.60
2023-09-23T14:44:06.578Z,2.40
2023-09-23T14:46:34.446Z,2.40
2023-09-23T14:49:02.068Z,1.70
2023-09-23T14:51:29.555Z,1.80
2023-09-23T14:53:57.180Z,6.60
2023-09-23T14:56:24.963Z,2.40
2023-09-23T14:58:52.918Z,4.60
2023-09-23T15:01:20.607Z,4.50
2023-09-23T15:03:48.312Z,1.80
2023-09-23T15:06:16.105Z,2.60
2023-09-23T15:08:59.511Z,4.70
2023-09-23T15:11:30.793Z,2.20
2023-09-23T15:13:58.581Z,3.20
2023-09-23T15:16:30.851Z,2.50
2023-09-23T15:18:59.021Z,4.80
2023-09-23T15:21:26.764Z,3.10
2023-09-23T15:23:54.523Z,2.30
2023-09-23T15:26:22.975Z,2.50
2023-09-23T15:28:51.287Z,0.70
2023-09-23T15:31:19.347Z,1.50
2023-09-23T15:33:47.516Z,9.10
2023-09-23T15:36:15.792Z,4.80
2023-09-23T15:38:43.270Z,3.30
2023-09-23T15:41:13.523Z,3.40
2023-09-23T15:43:42.362Z,2.70
2023-09-23T15:46:10.307Z,4.20
2023-09-23T15:48:38.094Z,18.20
2023-09-23T15:51:13.778Z,13.00
2023-09-23T15:53:41.470Z,15.60
2023-09-23T15:56:10.196Z,16.80
2023-09-23T15:58:39.125Z,16.30
2023-09-23T16:01:07.284Z,19.60
2023-09-23T16:03:35.542Z,29.80
2023-09-23T16:06:03.806Z,35.30
2023-09-23T16:08:31.477Z,26.60
2023-09-23T16:10:59.126Z,19.30
2023-09-23T16:13:26.800Z,14.60
2023-09-23T16:15:54.511Z,10.70
2023-09-23T16:18:23.387Z,7.60
2023-09-23T16:20:54.791Z,8.30
2023-09-23T16:23:22.498Z,6.90
2023-09-23T16:25:50.728Z,5.40
2023-09-23T16:28:18.507Z,6.40
2023-09-23T16:30:46.470Z,4.40
2023-09-23T16:33:14.135Z,4.60
2023-09-23T16:35:41.914Z,6.10
2023-09-23T16:38:09.561Z,6.10
2023-09-23T16:45:05.648Z,4.40
2023-09-23T16:47:33.252Z,3.20
2023-09-23T16:50:00.944Z,3.40
2023-09-23T16:52:28.584Z,4.10
2023-09-23T16:54:56.659Z,7.00
2023-09-23T16:57:24.367Z,3.10
2023-09-23T16:59:52.193Z,3.30
2023-09-23T17:02:20.232Z,4.30
2023-09-23T17:04:49.600Z,5.20
2023-09-23T17:07:18.757Z,1.80
2023-09-23T17:09:46.410Z,4.90
2023-09-23T17:12:14.287Z,4.90
2023-09-23T17:14:43.149Z,3.30
2023-09-23T17:17:11.804Z,6.60
2023-09-23T17:19:39.509Z,5.50
2023-09-23T17:22:07.069Z,10.20
2023-09-23T17:24:37.499Z,4.80
2023-09-23T17:27:05.777Z,5.00
2023-09-23T17:29:33.670Z,3.50
2023-09-23T17:32:01.227Z,5.80
2023-09-23T17:34:28.852Z,8.50
2023-09-23T17:36:56.463Z,3.80
2023-09-23T17:39:23.973Z,4.50
2023-09-23T17:41:51.568Z,4.80
2023-09-23T17:44:19.223Z,4.10
2023-09-23T17:46:47.097Z,2.60
2023-09-23T17:49:14.666Z,4.40
2023-09-23T17:51:43.206Z,5.70
2023-09-23T17:54:10.866Z,3.30
2023-09-23T17:56:38.562Z,5.60
2023-09-23T17:59:06.512Z,5.80
2023-09-23T18:01:34.346Z,2.00
2023-09-23T18:04:02.235Z,2.20
2023-09-23T18:06:30.306Z,3.80
2023-09-23T18:08:57.968Z,2.30
2023-09-23T18:11:25.874Z,4.90
2023-09-23T18:13:53.592Z,2.60
2023-09-23T18:16:21.339Z,3.10
2023-09-23T18:18:49.428Z,4.20
2023-09-23T18:21:19.141Z,7.40
2023-09-23T18:23:47.295Z,3.60
2023-09-23T18:26:16.279Z,4.00
2023-09-23T18:28:47.549Z,7.00
2023-09-23T18:31:15.110Z,4.80
2023-09-23T18:33:42.900Z,4.50
2023-09-23T18:36:12.193Z,5.60
2023-09-23T18:38:40.055Z,6.10
2023-09-23T18:41:08.461Z,5.20
2023-09-23T18:43:36.301Z,4.50
2023-09-23T18:46:04.114Z,4.60
2023-09-23T18:48:33.343Z,4.00
2023-09-23T18:51:01.414Z,4.30
2023-09-23T18:53:29.244Z,5.50
2023-09-23T18:56:01.134Z,6.00
2023-09-23T18:58:29.224Z,4.10
2023-09-23T19:00:56.880Z,4.40
2023-09-23T19:03:25.098Z,4.20
2023-09-23T19:05:54.014Z,4.80
2023-09-23T19:08:21.805Z,3.10
2023-09-23T19:10:49.456Z,2.70
2023-09-23T19:13:17.277Z,4.20
2023-09-23T19:15:49.497Z,3.70
2023-09-23T19:18:17.553Z,4.20
2023-09-23T19:20:45.369Z,4.40
2023-09-23T19:23:15.396Z,5.70
2023-09-23T19:25:43.219Z,4.80
2023-09-23T19:28:10.800Z,4.20
2023-09-23T19:30:38.430Z,4.70
2023-09-23T19:33:06.723Z,7.00
2023-09-23T19:35:37.271Z,2.50
2023-09-23T19:38:05.691Z,3.40
2023-09-23T19:40:33.312Z,4.00
2023-09-23T19:43:01.439Z,2.70
2023-09-23T19:45:29.107Z,5.80
2023-09-23T19:47:57.431Z,5.30
2023-09-23T19:50:26.519Z,6.40
2023-09-23T19:52:54.043Z,8.20
2023-09-23T19:55:21.594Z,4.00
2023-09-23T19:57:49.194Z,4.30
2023-09-23T20:00:17.062Z,5.20
2023-09-23T20:02:44.746Z,5.90
2023-09-23T20:05:13.711Z,2.70
2023-09-23T20:07:41.432Z,5.70
2023-09-23T20:10:11.785Z,5.00
2023-09-23T20:12:39.421Z,4.40
2023-09-23T20:15:07.757Z,6.50
2023-09-23T20:17:35.913Z,3.90
2023-09-23T20:20:10.096Z,5.30
2023-09-23T20:22:37.957Z,4.00
2023-09-23T20:25:06.360Z,2.50
2023-09-23T20:27:34.197Z,3.80
2023-09-23T20:30:07.668Z,5.90
2023-09-23T20:32:44.090Z,4.60
2023-09-23T20:35:13.399Z,4.40
2023-09-23T20:37:44.529Z,5.30
2023-09-23T20:40:16.978Z,8.00
2023-09-23T20:42:45.146Z,6.70
2023-09-23T20:45:13.670Z,4.90
2023-09-23T20:47:41.986Z,4.60
2023-09-23T20:50:11.221Z,6.10
2023-09-23T20:52:39.086Z,4.80
2023-09-23T20:55:07.442Z,5.70
2023-09-23T20:57:35.103Z,5.50
2023-09-23T21:00:09.114Z,5.90
2023-09-23T21:02:36.815Z,9.10
2023-09-23T21:05:05.252Z,4.50
2023-09-23T21:07:33.140Z,6.90
2023-09-23T21:10:02.140Z,3.20
2023-09-23T21:12:29.773Z,5.80
2023-09-23T21:14:57.443Z,3.60
2023-09-23T21:17:25.316Z,3.40
2023-09-23T21:19:54.101Z,5.30
2023-09-23T21:22:21.748Z,5.70
2023-09-23T21:24:49.408Z,5.00
2023-09-23T21:27:17.170Z,5.30
2023-09-23T21:29:44.896Z,7.00
2023-09-23T21:32:12.699Z,4.80
2023-09-23T21:34:40.470Z,4.50
2023-09-23T21:37:08.534Z,5.80
2023-09-23T21:39:36.511Z,5.10
2023-09-23T21:42:04.295Z,6.80
2023-09-23T21:44:31.953Z,4.10
2023-09-23T21:46:59.641Z,5.90
2023-09-23T21:49:27.143Z,2.90
2023-09-23T21:51:54.804Z,3.70
2023-09-23T21:54:22.467Z,6.70
2023-09-23T21:56:50.053Z,6.40
2023-09-23T21:59:17.824Z,5.90
2023-09-23T22:01:46.910Z,2.40
2023-09-23T22:04:15.589Z,4.80
2023-09-23T22:06:43.455Z,4.80
2023-09-23T22:09:11.095Z,7.90
2023-09-23T22:11:38.808Z,7.10
2023-09-23T22:14:07.843Z,5.00
2023-09-23T22:16:36.163Z,5.80
2023-09-23T22:19:06.784Z,5.80
2023-09-23T22:21:36.778Z,5.70
2023-09-23T22:24:07.154Z,5.50
2023-09-23T22:26:39.062Z,5.90
2023-09-23T22:29:11.039Z,5.10
2023-09-23T22:31:40.252Z,4.30
2023-09-23T22:34:08.230Z,2.70
2023-09-23T22:36:35.761Z,3.30
2023-09-23T22:39:04.273Z,7.80
2023-09-23T22:41:32.219Z,3.50
2023-09-23T22:44:00.520Z,4.10
2023-09-23T22:46:28.344Z,4.70
2023-09-23T22:48:56.100Z,3.80
2023-09-23T22:51:23.650Z,3.90
2023-09-23T22:53:51.636Z,4.00
2023-09-23T22:56:19.722Z,5.20
2023-09-23T22:58:48.586Z,2.70
2023-09-23T23:01:17.534Z,2.70
2023-09-23T23:03:45.689Z,4.80
2023-09-23T23:06:13.768Z,3.90
2023-09-23T23:08:42.709Z,6.80
2023-09-23T23:11:10.912Z,3.70
2023-09-23T23:13:39.536Z,3.70
2023-09-23T23:16:13.866Z,6.00
2023-09-23T23:18:41.699Z,2.50
2023-09-23T23:21:09.423Z,5.00
2023-09-23T23:23:37.469Z,6.00
2023-09-23T23:26:08.341Z,5.60
2023-09-23T23:28:36.501Z,4.60
2023-09-23T23:31:06.010Z,3.40
2023-09-23T23:33:33.758Z,6.50
2023-09-23T23:36:02.072Z,2.40
2023-09-23T23:38:32.537Z,4.40
2023-09-23T23:41:03.125Z,4.90
2023-09-23T23:43:30.879Z,3.00
2023-09-23T23:46:00.249Z,4.00
2023-09-23T23:48:31.495Z,2.50
2023-09-23T23:51:06.637Z,3.10
2023-09-23T23:56:02.931Z,4.20
2023-09-23T23:58:30.540Z,2.50
